地図

経路データ

SID SEASON NUMBER BASIN SUBBASIN NAME ISO_TIME NATURE LAT LON WMO_WIND WMO_PRES WMO_AGENCY TRACK_TYPE DIST2LAND LANDFALL IFLAG USA_AGENCY USA_ATCF_ID USA_LAT USA_LON USA_RECORD USA_STATUS USA_WIND USA_PRES USA_SSHS USA_R34_NE USA_R34_SE USA_R34_SW USA_R34_NW USA_R50_NE USA_R50_SE USA_R50_SW USA_R50_NW USA_R64_NE USA_R64_SE USA_R64_SW USA_R64_NW USA_POCI USA_ROCI USA_RMW USA_EYE TOKYO_LAT TOKYO_LON TOKYO_GRADE TOKYO_WIND TOKYO_PRES TOKYO_R50_DIR TOKYO_R50_LONG TOKYO_R50_SHORT TOKYO_R30_DIR TOKYO_R30_LONG TOKYO_R30_SHORT TOKYO_LAND CMA_LAT CMA_LON CMA_CAT CMA_WIND CMA_PRES HKO_LAT HKO_LON HKO_CAT HKO_WIND HKO_PRES NEWDELHI_LAT NEWDELHI_LON NEWDELHI_GRADE NEWDELHI_WIND NEWDELHI_PRES NEWDELHI_CI NEWDELHI_DP NEWDELHI_POCI REUNION_LAT REUNION_LON REUNION_TYPE REUNION_WIND REUNION_PRES REUNION_TNUM REUNION_CI REUNION_RMW REUNION_R34_NE REUNION_R34_SE REUNION_R34_SW REUNION_R34_NW REUNION_R50_NE REUNION_R50_SE REUNION_R50_SW REUNION_R50_NW REUNION_R64_NE REUNION_R64_SE REUNION_R64_SW REUNION_R64_NW BOM_LAT BOM_LON BOM_TYPE BOM_WIND BOM_PRES BOM_TNUM BOM_CI BOM_RMW BOM_R34_NE BOM_R34_SE BOM_R34_SW BOM_R34_NW BOM_R50_NE BOM_R50_SE BOM_R50_SW BOM_R50_NW BOM_R64_NE BOM_R64_SE BOM_R64_SW BOM_R64_NW BOM_ROCI BOM_POCI BOM_EYE BOM_POS_METHOD BOM_PRES_METHOD NADI_LAT NADI_LON NADI_CAT NADI_WIND NADI_PRES WELLINGTON_LAT WELLINGTON_LON WELLINGTON_WIND WELLINGTON_PRES DS824_LAT DS824_LON DS824_STAGE DS824_WIND DS824_PRES TD9636_LAT TD9636_LON TD9636_STAGE TD9636_WIND TD9636_PRES TD9635_LAT TD9635_LON TD9635_WIND TD9635_PRES TD9635_ROCI NEUMANN_LAT NEUMANN_LON NEUMANN_CLASS NEUMANN_WIND NEUMANN_PRES MLC_LAT MLC_LON MLC_CLASS MLC_WIND MLC_PRES USA_GUST BOM_GUST BOM_GUST_PER REUNION_GUST REUNION_GUST_PER USA_SEAHGT USA_SEARAD_NE USA_SEARAD_SE USA_SEARAD_SW USA_SEARAD_NW STORM_SPEED STORM_DIR
1875060S17088 1875 5 SI MM NOT_NAMED 1875-03-01 06:00:00 NR -17.2000 88.0000 spur-split 2106 2097 _____O________ -1 -17.2000 88.0000 99 9.90000 1 339
1875060S17088 1875 5 SI MM NOT_NAMED 1875-03-01 09:00:00 NR -17.1359 87.9718 spur-split 2097 2097 _____P________ -1 -17.1359 87.9718 99 1 330
1875060S17088 1875 5 SI MM NOT_NAMED 1875-03-01 12:00:00 NR -17.0862 87.9332 spur-split 2103 2103 _____P________ -1 -17.0862 87.9332 99 1 306
1875060S17088 1875 5 SI MM NOT_NAMED 1875-03-01 15:00:00 NR -17.0655 87.8740 spur-split 2103 2103 _____P________ -1 -17.0655 87.8740 99 1 269
1875060S17088 1875 5 SI MM NOT_NAMED 1875-03-01 18:00:00 NR -17.0881 87.7837 spur-split 2109 2109 _____P________ -1 -17.0881 87.7837 99 2 244
1875060S17088 1875 5 SI MM NOT_NAMED 1875-03-01 21:00:00 NR -17.1685 87.6520 spur-split 2124 2124 _____P________ -1 -17.1685 87.6520 99 4 232
1875060S17088 1875 5 SI MM NOT_NAMED 1875-03-02 00:00:00 NR -17.3211 87.4680 spur-split 2146 2146 _____P________ -1 -17.3211 87.4680 99 6 226
1875060S17088 1875 5 SI MM NOT_NAMED 1875-03-02 03:00:00 NR -17.5601 87.2211 spur-split 2192 2192 _____P________ -1 -17.5601 87.2211 99 8 223
1875060S17088 1875 5 SI MM NOT_NAMED 1875-03-02 06:00:00 NR -17.9000 86.9000 spur-split 2238 2238 _____O________ -1 -17.9000 86.9000 99 9.90000 11 221
1875060S17088 1875 5 SI MM NOT_NAMED 1875-03-02 09:00:00 NR -18.3489 86.4983 spur-split 2299 2299 _____P________ -1 -18.3489 86.4983 99 13 220
1875060S17088 1875 5 SI MM NOT_NAMED 1875-03-02 12:00:00 NR -18.8912 86.0306 spur-split 2384 2384 _____P________ -1 -18.8912 86.0306 99 15 219
1875060S17088 1875 5 SI MM NOT_NAMED 1875-03-02 15:00:00 NR -19.5052 85.5170 spur-split 2470 2470 _____P________ -1 -19.5052 85.5170 99 16 218
1875060S17088 1875 5 SI MM NOT_NAMED 1875-03-02 18:00:00 NR -20.1692 84.9781 spur-split 2564 2564 _____P________ -1 -20.1692 84.9781 99 17 217
1875060S17088 1875 5 SI MM NOT_NAMED 1875-03-02 21:00:00 NR -20.8617 84.4349 spur-split 2664 2664 _____P________ -1 -20.8617 84.4349 99 17 216
1875060S17088 1875 5 SI MM NOT_NAMED 1875-03-03 00:00:00 NR -21.5615 83.9091 spur-split 2710 2657 _____P________ -1 -21.5615 83.9091 99 17 214
1875060S17088 1875 5 SI MM NOT_NAMED 1875-03-03 03:00:00 NR -22.2478 83.4232 spur-split 2657 2617 _____P________ -1 -22.2478 83.4232 99 16 212
1875060S17088 1875 5 SI MM NOT_NAMED 1875-03-03 06:00:00 NR -22.9000 83.0000 spur-split 2617 2589 _____O________ -1 -22.9000 83.0000 99 9.90000 14 208
1875060S17088 1875 5 SI MM NOT_NAMED 1875-03-03 09:00:00 NR -23.4914 82.6979 spur-split 2589 2571 _____P________ -1 -23.4914 82.6979 99 13 203
1875060S17088 1875 5 SI MM NOT_NAMED 1875-03-03 12:00:00 NR -24.0673 82.4512 spur-split 2573 2555 _____P________ -1 -24.0673 82.4512 99 12 200
1875060S17088 1875 5 SI MM NOT_NAMED 1875-03-03 15:00:00 NR -24.6206 82.2541 spur-split 2558 2543 _____P________ -1 -24.6206 82.2541 99 11 196
1875060S17088 1875 5 SI MM NOT_NAMED 1875-03-03 18:00:00 NR -25.1445 82.1005 spur-split 2544 2539 _____P________ -1 -25.1445 82.1005 99 10 194
1875060S17088 1875 5 SI MM NOT_NAMED 1875-03-03 21:00:00 NR -25.6317 81.9846 spur-split 2542 2536 _____P________ -1 -25.6317 81.9846 99 10 191
1875060S17088 1875 5 SI MM NOT_NAMED 1875-03-04 00:00:00 NR -26.0749 81.9000 spur-split 2541 2537 _____P________ -1 -26.0749 81.9000 99 8 189
1875060S17088 1875 5 SI MM NOT_NAMED 1875-03-04 03:00:00 NR -26.4668 81.8406 spur-split 2539 2539 _____P________ -1 -26.4668 81.8406 99 7 187
1875060S17088 1875 5 SI MM NOT_NAMED 1875-03-04 06:00:00 NR -26.8000 81.8000 spur-split 2546 2546 _____O________ -1 -26.8000 81.8000 99 9.90000 6 185
1875060S17088 1875 5 SI MM NOT_NAMED 1875-03-04 09:00:00 NR -27.0697 81.7726 spur-split 2552 2552 _____P________ -1 -27.0697 81.7726 99 5 184
1875060S17088 1875 5 SI MM NOT_NAMED 1875-03-04 12:00:00 NR -27.2815 81.7561 spur-split 2557 2550 _____P________ -1 -27.2815 81.7561 99 4 0
1875060S17088 1875 5 SI MM NOT_NAMED 1875-03-04 15:00:00 NR -27.4437 81.7489 spur-split 2550 2550 _____P________ -1 -27.4437 81.7489 99 3 0
1875060S17088 1875 5 SI MM NOT_NAMED 1875-03-04 18:00:00 NR -27.5645 81.7496 spur-split 2555 2555 _____P________ -1 -27.5645 81.7496 99 2 175
1875060S17088 1875 5 SI MM NOT_NAMED 1875-03-04 21:00:00 NR -27.6523 81.7567 spur-split 2567 2567 _____P________ -1 -27.6523 81.7567 99 2 170
1875060S17088 1875 5 SI MM NOT_NAMED 1875-03-05 00:00:00 NR -27.7153 81.7685 spur-split 2567 2559 _____P________ -1 -27.7153 81.7685 99 1 168
1875060S17088 1875 5 SI MM NOT_NAMED 1875-03-05 03:00:00 NR -27.7618 81.7834 spur-split 2559 2559 _____P________ -1 -27.7618 81.7834 99 1 163
1875060S17088 1875 5 SI MM NOT_NAMED 1875-03-05 06:00:00 NR -27.8000 81.8000 spur-split 2559 _____O________ -1 -27.8000 81.8000 99 9.90000 1 165

IBTrACS Databaseについて

本データベースは、米国NOAAが公開する1842年以降の世界の熱帯低気圧のベストトラックデータアーカイブInternational Best Track Archive for Climate Stewardship (IBTrACS)を、ウェブで閲覧しやすい形式に変換したものです。

最終更新日:2021-12-06